Time;durP1;ratioP1;P1;durP2;ratioP2;P2;SDS_P1;SDS_P2;PMS_P1;PMS_P2;Temp;Humidity;BMP_temperature;BMP_pressure;BME280_temperature;BME280_humidity;BME280_pressure;Samples;Min_cycle;Max_cycle;Signal;HPM_P1;HPM_P2
2022/12/12 00:02:26;;;;;;;32.65;17.23;;;;;;;;;;5076583;28;20040;-80
2022/12/12 00:05:17;;;;;;;41.45;19.02;;;;;;;;;;5075970;28;20045;-77
2022/12/12 00:08:02;;;;;;;35.90;18.08;;;;;;;;;;5083551;28;20040;-77
2022/12/12 00:10:48;;;;;;;31.23;15.77;;;;;;;;;;5082830;28;20409;-79
2022/12/12 00:13:33;;;;;;;35.90;16.05;;;;;;;;;;5075816;28;20040;-76
2022/12/12 00:16:18;;;;;;;30.98;15.95;;;;;;;;;;5076550;28;20409;-77
2022/12/12 00:19:03;;;;;;;32.53;15.68;;;;;;;;;;5082365;28;20056;-77
2022/12/12 00:21:49;;;;;;;37.40;17.70;;;;;;;;;;5082930;28;20045;-77
2022/12/12 00:24:34;;;;;;;45.28;19.63;;;;;;;;;;5076167;28;20485;-77
2022/12/12 00:27:20;;;;;;;43.10;20.13;;;;;;;;;;5082415;28;20032;-77
2022/12/12 00:30:06;;;;;;;42.67;19.60;;;;;;;;;;5082707;28;20401;-80
2022/12/12 00:32:50;;;;;;;26.50;11.63;;;;;;;;;;5075981;28;20036;-81
2022/12/12 00:35:36;;;;;;;42.40;18.88;;;;;;;;;;5076210;28;20048;-79
2022/12/12 00:38:22;;;;;;;43.47;19.88;;;;;;;;;;5075793;28;20451;-77
2022/12/12 00:41:07;;;;;;;39.70;19.33;;;;;;;;;;5079300;28;20053;-79
2022/12/12 00:43:54;;;;;;;42.95;19.50;;;;;;;;;;5094914;28;20048;-78
2022/12/12 00:46:41;;;;;;;40.50;19.73;;;;;;;;;;5074563;28;20045;-78
2022/12/12 00:49:26;;;;;;;40.75;20.02;;;;;;;;;;5081205;28;20048;-79
2022/12/12 00:52:12;;;;;;;45.22;20.83;;;;;;;;;;5074863;28;20428;-78
2022/12/12 00:54:57;;;;;;;43.35;19.77;;;;;;;;;;5072851;28;20060;-76
2022/12/12 00:57:43;;;;;;;42.30;18.83;;;;;;;;;;5080228;28;20048;-79
2022/12/12 01:00:28;;;;;;;46.55;20.88;;;;;;;;;;5064880;28;20045;-76
2022/12/12 01:03:14;;;;;;;48.05;19.15;;;;;;;;;;5073642;28;20477;-78
2022/12/12 01:06:00;;;;;;;43.78;19.10;;;;;;;;;;5073696;28;20474;-78
2022/12/12 01:08:45;;;;;;;38.47;17.63;;;;;;;;;;5073255;28;20385;-76
2022/12/12 01:11:31;;;;;;;44.35;20.85;;;;;;;;;;5075081;28;20044;-79
2022/12/12 01:14:17;;;;;;;49.78;22.33;;;;;;;;;;5075182;28;20052;-79
2022/12/12 01:17:02;;;;;;;42.97;20.20;;;;;;;;;;5075019;28;20052;-76
2022/12/12 01:19:48;;;;;;;51.35;21.05;;;;;;;;;;5081811;28;20048;-77
2022/12/12 01:22:33;;;;;;;46.55;20.00;;;;;;;;;;5074698;28;20040;-76
2022/12/12 01:25:19;;;;;;;39.13;20.30;;;;;;;;;;5074913;28;20485;-77
2022/12/12 01:28:05;;;;;;;47.22;22.35;;;;;;;;;;5074923;28;20036;-76
2022/12/12 01:30:51;;;;;;;41.40;18.90;;;;;;;;;;5074086;28;20489;-78
2022/12/12 01:33:38;;;;;;;37.85;19.70;;;;;;;;;;5060098;28;20397;-78
2022/12/12 01:36:24;;;;;;;46.00;21.23;;;;;;;;;;5066132;28;20045;-79
2022/12/12 01:39:09;;;;;;;40.75;20.08;;;;;;;;;;5074842;28;20486;-80
2022/12/12 01:41:54;;;;;;;50.95;22.25;;;;;;;;;;5074542;28;20045;-79
2022/12/12 01:44:49;;;;;;;57.95;24.17;;;;;;;;;;5073402;28;20037;-82
2022/12/12 01:47:34;;;;;;;54.28;20.45;;;;;;;;;;5052386;28;20037;-83
2022/12/12 01:50:20;;;;;;;40.97;19.67;;;;;;;;;;5074358;28;20040;-78
2022/12/12 01:53:06;;;;;;;45.22;21.75;;;;;;;;;;5074407;28;20044;-80
2022/12/12 01:55:53;;;;;;;34.95;16.20;;;;;;;;;;5066131;28;20383;-80
2022/12/12 01:58:41;;;;;;;44.70;18.92;;;;;;;;;;5073887;28;20032;-81
2022/12/12 02:01:27;;;;;;;45.17;20.67;;;;;;;;;;5074219;28;20402;-80
2022/12/12 02:04:12;;;;;;;49.00;19.52;;;;;;;;;;5065906;28;20040;-80
2022/12/12 02:06:58;;;;;;;41.25;17.75;;;;;;;;;;5073637;28;20486;-80
2022/12/12 02:09:46;;;;;;;40.90;19.77;;;;;;;;;;5074103;28;20040;-80
2022/12/12 02:12:31;;;;;;;42.58;21.17;;;;;;;;;;5073505;28;20490;-81
2022/12/12 02:15:16;;;;;;;41.40;19.60;;;;;;;;;;5073894;28;20048;-81
2022/12/12 02:18:19;;;;;;;45.53;19.48;;;;;;;;;;5074366;28;20487;-80
2022/12/12 02:21:14;;;;;;;43.13;20.60;;;;;;;;;;5073446;28;20045;-81
2022/12/12 02:24:24;;;;;;;37.25;13.07;;;;;;;;;;5073978;28;20510;-81
2022/12/12 02:27:36;;;;;;;34.42;16.35;;;;;;;;;;5080098;28;20032;-81
2022/12/12 02:30:31;;;;;;;37.72;18.45;;;;;;;;;;5073621;28;20143;-81
2022/12/12 02:33:38;;;;;;;37.95;18.63;;;;;;;;;;5073965;28;20044;-82
2022/12/12 02:36:48;;;;;;;39.53;18.40;;;;;;;;;;5073673;28;20045;-81
2022/12/12 02:39:43;;;;;;;40.50;18.75;;;;;;;;;;5058805;28;20045;-81
2022/12/12 02:42:35;;;;;;;40.22;18.55;;;;;;;;;;5073254;28;20056;-81
2022/12/12 02:45:41;;;;;;;40.45;17.98;;;;;;;;;;5065709;28;20482;-81
2022/12/12 02:48:47;;;;;;;40.38;18.60;;;;;;;;;;5021469;28;20049;-81
2022/12/12 02:51:34;;;;;;;15.75;7.40;;;;;;;;;;5073352;28;20041;-80
2022/12/12 02:54:22;;;;;;;17.98;9.23;;;;;;;;;;5075351;28;20037;-79
2022/12/12 02:57:16;;;;;;;75.07;36.97;;;;;;;;;;5096196;28;20024;-78
2022/12/12 03:00:17;;;;;;;58.97;23.80;;;;;;;;;;5074190;28;20045;-80
2022/12/12 03:10:14;;;;;;;528.33;311.20;;;;;;;;;;5073032;28;20049;-80
2022/12/12 03:13:29;;;;;;;222.55;107.13;;;;;;;;;;5073771;28;20045;-81
2022/12/12 03:16:31;;;;;;;56.53;25.40;;;;;;;;;;5073232;28;20378;-81
2022/12/12 03:19:26;;;;;;;576.20;371.83;;;;;;;;;;5073255;28;20048;-80
2022/12/12 03:22:44;;;;;;;32.10;17.27;;;;;;;;;;5073452;28;20049;-80
2022/12/12 03:25:41;;;;;;;31.67;16.60;;;;;;;;;;5072976;28;20044;-80
2022/12/12 03:28:38;;;;;;;27.17;13.48;;;;;;;;;;5073441;28;20040;-80
2022/12/12 03:31:29;;;;;;;193.25;124.68;;;;;;;;;;5049923;28;20419;-82
2022/12/12 03:34:29;;;;;;;102.38;59.15;;;;;;;;;;5058821;28;20044;-80
2022/12/12 03:37:25;;;;;;;24.13;9.88;;;;;;;;;;5073065;28;20036;-81
2022/12/12 03:40:17;;;;;;;42.47;21.90;;;;;;;;;;5050550;28;20037;-80
2022/12/12 03:43:13;;;;;;;10.70;7.05;;;;;;;;;;5064908;28;20052;-80
2022/12/12 03:46:13;;;;;;;30.02;16.55;;;;;;;;;;5064374;28;20045;-81
2022/12/12 03:49:26;;;;;;;28.75;11.68;;;;;;;;;;5058451;28;20045;-80
2022/12/12 03:52:22;;;;;;;29.20;15.25;;;;;;;;;;5072628;28;20044;-81
2022/12/12 03:55:15;;;;;;;33.50;15.43;;;;;;;;;;5073053;28;20037;-81
2022/12/12 03:58:07;;;;;;;36.42;17.73;;;;;;;;;;5073106;28;20044;-82
2022/12/12 04:00:56;;;;;;;31.27;15.32;;;;;;;;;;5072358;28;20401;-82
2022/12/12 04:03:55;;;;;;;28.83;14.20;;;;;;;;;;5072951;28;20040;-83
2022/12/12 04:06:48;;;;;;;27.73;14.40;;;;;;;;;;5057392;28;20045;-82
2022/12/12 04:12:57;;;;;;;27.70;15.05;;;;;;;;;;5064527;28;20033;-81
2022/12/12 04:15:52;;;;;;;32.72;15.63;;;;;;;;;;5072585;28;20045;-81
2022/12/12 04:18:44;;;;;;;27.90;15.85;;;;;;;;;;5072665;28;20044;-81
2022/12/12 04:25:01;;;;;;;29.30;15.40;;;;;;;;;;5067964;28;20044;-81
2022/12/12 04:27:52;;;;;;;29.08;13.98;;;;;;;;;;5075836;28;20045;-81
2022/12/12 04:30:39;;;;;;;30.38;14.38;;;;;;;;;;5076603;28;20057;-81
2022/12/12 04:33:28;;;;;;;26.92;14.68;;;;;;;;;;5076059;28;20052;-81
2022/12/12 04:36:16;;;;;;;21.60;11.55;;;;;;;;;;5075370;28;20045;-81
2022/12/12 04:39:05;;;;;;;24.98;13.75;;;;;;;;;;5082579;28;20040;-81
2022/12/12 04:41:53;;;;;;;31.67;15.70;;;;;;;;;;5075578;28;20037;-82
2022/12/12 04:44:41;;;;;;;36.28;16.98;;;;;;;;;;5075703;28;20048;-82
2022/12/12 04:47:30;;;;;;;30.08;17.38;;;;;;;;;;5075807;28;20040;-82
2022/12/12 04:50:18;;;;;;;34.20;16.90;;;;;;;;;;5074990;28;20044;-82
2022/12/12 04:53:10;;;;;;;28.63;15.45;;;;;;;;;;5066050;28;20033;-81
2022/12/12 04:55:58;;;;;;;28.00;15.60;;;;;;;;;;5075675;28;20049;-81
2022/12/12 04:58:43;;;;;;;26.77;14.85;;;;;;;;;;5075563;28;20060;-81
2022/12/12 05:01:36;;;;;;;22.25;13.30;;;;;;;;;;5075555;28;20033;-81
2022/12/12 05:04:24;;;;;;;34.97;17.67;;;;;;;;;;5066835;28;20049;-82
2022/12/12 05:07:16;;;;;;;46.53;23.42;;;;;;;;;;5075397;28;20040;-81
2022/12/12 05:10:03;;;;;;;64.60;32.60;;;;;;;;;;5075279;28;20079;-82
2022/12/12 05:12:55;;;;;;;52.25;26.48;;;;;;;;;;5075239;28;20040;-81
2022/12/12 05:15:40;;;;;;;41.50;21.58;;;;;;;;;;5095662;28;20052;-79
2022/12/12 05:18:26;;;;;;;35.28;19.70;;;;;;;;;;5083886;28;20107;-81
2022/12/12 05:21:12;;;;;;;28.20;17.05;;;;;;;;;;5075820;28;20045;-81
2022/12/12 05:23:58;;;;;;;32.40;19.10;;;;;;;;;;5060576;28;20036;-81
2022/12/12 05:26:43;;;;;;;32.05;17.50;;;;;;;;;;5066214;28;20470;-82
2022/12/12 05:29:30;;;;;;;25.80;15.77;;;;;;;;;;5075025;28;20442;-81
2022/12/12 05:32:16;;;;;;;25.88;14.43;;;;;;;;;;5074421;28;20040;-82
2022/12/12 05:35:02;;;;;;;23.52;14.38;;;;;;;;;;5074870;28;20040;-81
2022/12/12 05:37:48;;;;;;;23.65;13.00;;;;;;;;;;5052604;28;20056;-81
2022/12/12 05:40:33;;;;;;;25.60;15.13;;;;;;;;;;5074050;28;20053;-82
2022/12/12 05:43:19;;;;;;;26.90;15.68;;;;;;;;;;5074903;28;20045;-81
2022/12/12 05:46:05;;;;;;;24.15;13.52;;;;;;;;;;5074256;28;20421;-82
2022/12/12 05:48:50;;;;;;;25.45;14.70;;;;;;;;;;5074431;28;20041;-81
2022/12/12 05:51:36;;;;;;;20.35;12.70;;;;;;;;;;5074248;28;20048;-81
2022/12/12 05:54:21;;;;;;;23.17;12.73;;;;;;;;;;5073584;28;20410;-81
2022/12/12 05:57:08;;;;;;;23.33;12.85;;;;;;;;;;5074423;28;20044;-82
2022/12/12 05:59:52;;;;;;;18.15;9.27;;;;;;;;;;5065840;28;20494;-81
2022/12/12 06:02:38;;;;;;;10.90;5.43;;;;;;;;;;5073907;28;20482;-81
2022/12/12 06:05:23;;;;;;;22.35;11.20;;;;;;;;;;5074224;28;20040;-81
2022/12/12 06:08:08;;;;;;;9.90;6.75;;;;;;;;;;5073889;28;20044;-81
2022/12/12 06:10:54;;;;;;;16.65;9.18;;;;;;;;;;5074095;28;20044;-81
2022/12/12 06:13:39;;;;;;;22.90;13.02;;;;;;;;;;5074235;28;20402;-81
2022/12/12 06:16:25;;;;;;;20.88;12.30;;;;;;;;;;5073638;28;20074;-81
2022/12/12 06:19:11;;;;;;;23.45;13.40;;;;;;;;;;5080926;28;20049;-81
2022/12/12 06:21:56;;;;;;;11.77;7.45;;;;;;;;;;5073635;28;20044;-81
2022/12/12 06:24:42;;;;;;;19.05;11.35;;;;;;;;;;5073999;28;20056;-81
2022/12/12 06:27:27;;;;;;;21.95;12.98;;;;;;;;;;5068366;28;20037;-83
2022/12/12 06:30:13;;;;;;;25.80;14.93;;;;;;;;;;5073193;28;20397;-80
2022/12/12 06:32:58;;;;;;;21.48;12.32;;;;;;;;;;5058849;28;20052;-80
2022/12/12 06:35:45;;;;;;;21.23;12.63;;;;;;;;;;5059078;28;20040;-80
2022/12/12 06:38:31;;;;;;;21.77;13.05;;;;;;;;;;5073460;28;20053;-81
2022/12/12 06:41:17;;;;;;;21.40;12.23;;;;;;;;;;5058453;28;20032;-82
2022/12/12 06:44:02;;;;;;;21.25;11.48;;;;;;;;;;5073143;28;20044;-81
2022/12/12 06:46:47;;;;;;;20.98;12.88;;;;;;;;;;5059157;28;20045;-81
2022/12/12 06:49:33;;;;;;;26.13;14.68;;;;;;;;;;5058460;28;20040;-82
2022/12/12 06:52:19;;;;;;;20.13;11.63;;;;;;;;;;5072887;28;20052;-81
2022/12/12 06:55:05;;;;;;;18.95;11.23;;;;;;;;;;5074103;28;20049;-81
2022/12/12 06:57:50;;;;;;;20.73;12.52;;;;;;;;;;5050341;28;20037;-81
2022/12/12 07:00:36;;;;;;;22.42;12.68;;;;;;;;;;5065152;28;20052;-82
2022/12/12 07:03:21;;;;;;;25.33;14.48;;;;;;;;;;5073772;28;20049;-81
2022/12/12 07:06:07;;;;;;;24.00;14.05;;;;;;;;;;5057717;28;20482;-79
2022/12/12 07:08:52;;;;;;;21.25;13.27;;;;;;;;;;5080505;28;20040;-81
2022/12/12 07:11:40;;;;;;;18.55;11.38;;;;;;;;;;5073218;28;20056;-79
2022/12/12 07:14:25;;;;;;;23.08;12.55;;;;;;;;;;5073646;28;20044;-79
2022/12/12 07:17:11;;;;;;;21.58;13.25;;;;;;;;;;5073730;28;20052;-80
2022/12/12 07:20:15;;;;;;;24.02;14.73;;;;;;;;;;5072608;28;20036;-80
2022/12/12 07:23:00;;;;;;;23.20;13.27;;;;;;;;;;5073470;28;20052;-80
2022/12/12 07:25:46;;;;;;;85.30;26.23;;;;;;;;;;5073026;28;20037;-80
2022/12/12 07:28:31;;;;;;;45.03;22.20;;;;;;;;;;5073237;28;20048;-80
2022/12/12 07:31:20;;;;;;;49.05;22.55;;;;;;;;;;5077955;28;20044;-78
2022/12/12 07:34:06;;;;;;;37.20;20.33;;;;;;;;;;5092776;28;20048;-79
2022/12/12 07:36:51;;;;;;;39.75;21.38;;;;;;;;;;5073850;28;20037;-80
2022/12/12 07:39:37;;;;;;;18.60;10.48;;;;;;;;;;5080208;28;20037;-80
2022/12/12 07:42:22;;;;;;;31.30;18.10;;;;;;;;;;5072948;28;20053;-80
2022/12/12 07:45:08;;;;;;;23.90;13.77;;;;;;;;;;5073468;28;20048;-80
2022/12/12 07:47:54;;;;;;;34.65;18.63;;;;;;;;;;5072621;28;20045;-81
2022/12/12 07:50:40;;;;;;;40.67;22.25;;;;;;;;;;5072957;28;20393;-81
2022/12/12 07:53:26;;;;;;;48.97;24.77;;;;;;;;;;5073814;28;20044;-82
2022/12/12 07:56:14;;;;;;;41.10;22.40;;;;;;;;;;5076417;28;20045;-79
2022/12/12 07:58:59;;;;;;;40.47;22.67;;;;;;;;;;5068339;28;20048;-80
2022/12/12 08:01:44;;;;;;;47.50;25.02;;;;;;;;;;5075863;28;20036;-80
2022/12/12 08:04:30;;;;;;;36.53;17.80;;;;;;;;;;5076732;28;20413;-80
2022/12/12 08:07:16;;;;;;;47.25;25.08;;;;;;;;;;5083552;28;20389;-79
2022/12/12 08:10:03;;;;;;;53.80;25.33;;;;;;;;;;5076085;28;20049;-80
2022/12/12 08:12:49;;;;;;;55.42;24.33;;;;;;;;;;5076581;28;20052;-79
2022/12/12 08:15:34;;;;;;;55.20;23.90;;;;;;;;;;5082865;28;20040;-79
2022/12/12 08:18:20;;;;;;;74.05;30.42;;;;;;;;;;5076349;28;20421;-79
2022/12/12 08:21:07;;;;;;;45.63;22.83;;;;;;;;;;5083417;28;20036;-79
2022/12/12 08:24:01;;;;;;;51.08;26.65;;;;;;;;;;5061060;28;20072;-81
2022/12/12 08:26:45;;;;;;;49.35;26.65;;;;;;;;;;5082880;28;20489;-79
2022/12/12 08:29:30;;;;;;;66.10;30.67;;;;;;;;;;5075755;28;20044;-79
2022/12/12 08:32:16;;;;;;;41.95;23.10;;;;;;;;;;5075768;28;20049;-80
2022/12/12 08:35:02;;;;;;;39.47;21.45;;;;;;;;;;5083280;28;20041;-79
2022/12/12 08:37:50;;;;;;;49.13;23.65;;;;;;;;;;5075616;28;20370;-80
2022/12/12 08:40:40;;;;;;;37.35;19.95;;;;;;;;;;5061257;28;20045;-76
2022/12/12 08:43:25;;;;;;;44.75;22.33;;;;;;;;;;5083641;28;20478;-76
2022/12/12 08:46:15;;;;;;;42.05;24.63;;;;;;;;;;5067328;28;20044;-84
2022/12/12 08:49:00;;;;;;;46.92;23.25;;;;;;;;;;5070774;28;20048;-79
2022/12/12 08:51:46;;;;;;;49.42;26.42;;;;;;;;;;5074861;28;20413;-80
2022/12/12 08:54:31;;;;;;;49.55;26.23;;;;;;;;;;5075806;28;20040;-78
2022/12/12 08:57:17;;;;;;;42.83;22.58;;;;;;;;;;5082826;28;20037;-77
2022/12/12 09:00:03;;;;;;;42.35;20.55;;;;;;;;;;5067265;28;20045;-78
2022/12/12 09:02:49;;;;;;;37.45;20.67;;;;;;;;;;5075931;28;20048;-78
2022/12/12 09:05:35;;;;;;;36.03;19.67;;;;;;;;;;5074590;28;20048;-78
2022/12/12 09:08:20;;;;;;;37.25;19.70;;;;;;;;;;5075602;28;20044;-77
2022/12/12 09:11:07;;;;;;;30.23;18.33;;;;;;;;;;5075497;28;20040;-78
2022/12/12 09:13:52;;;;;;;33.92;17.35;;;;;;;;;;5075454;28;20398;-79
2022/12/12 09:16:38;;;;;;;33.67;18.08;;;;;;;;;;5053296;28;20049;-77
2022/12/12 09:19:24;;;;;;;34.08;21.20;;;;;;;;;;5074656;28;20056;-83
2022/12/12 09:22:09;;;;;;;36.92;18.95;;;;;;;;;;5075184;28;20393;-79
2022/12/12 09:24:55;;;;;;;34.05;17.92;;;;;;;;;;5067010;28;20048;-79
2022/12/12 09:27:40;;;;;;;32.60;18.73;;;;;;;;;;5066116;28;20044;-81
2022/12/12 09:30:26;;;;;;;34.63;17.20;;;;;;;;;;5059792;28;20052;-82
2022/12/12 09:33:13;;;;;;;28.15;15.40;;;;;;;;;;5075327;28;20044;-76
2022/12/12 09:36:00;;;;;;;37.28;19.35;;;;;;;;;;5074949;28;20032;-82
2022/12/12 09:38:46;;;;;;;33.75;18.98;;;;;;;;;;5066815;28;20036;-83
2022/12/12 09:41:32;;;;;;;31.58;16.27;;;;;;;;;;5074164;28;20044;-81
2022/12/12 09:44:21;;;;;;;27.20;13.63;;;;;;;;;;5075031;28;20048;-82
2022/12/12 09:47:14;;;;;;;27.33;16.50;;;;;;;;;;5059730;28;20054;-77
2022/12/12 09:50:13;;;;;;;30.75;15.93;;;;;;;;;;5091194;28;20390;-77
2022/12/12 09:53:03;;;;;;;45.38;19.30;;;;;;;;;;5089792;28;20045;-77
2022/12/12 09:56:04;;;;;;;25.40;13.27;;;;;;;;;;5080501;28;20045;-77
2022/12/12 09:58:57;;;;;;;23.92;12.35;;;;;;;;;;5074380;28;20040;-76
2022/12/12 10:01:58;;;;;;;21.05;11.73;;;;;;;;;;5073994;28;20489;-76
2022/12/12 10:04:58;;;;;;;25.13;14.55;;;;;;;;;;5059257;28;20052;-76
2022/12/12 10:08:39;;;;;;;23.48;14.35;;;;;;;;;;5072490;28;20052;-77
2022/12/12 10:11:49;;;;;;;20.20;12.70;;;;;;;;;;5060407;28;20485;-75
2022/12/12 10:14:46;;;;;;;12.88;7.32;;;;;;;;;;5074437;28;20365;-77
2022/12/12 10:17:40;;;;;;;10.95;6.57;;;;;;;;;;5065115;28;20040;-74
2022/12/12 10:20:29;;;;;;;65.55;31.35;;;;;;;;;;5072007;28;20485;-74
2022/12/12 10:23:34;;;;;;;14.82;6.50;;;;;;;;;;5072056;28;20048;-76
2022/12/12 10:26:29;;;;;;;18.48;8.25;;;;;;;;;;5073062;28;20470;-76
2022/12/12 10:29:18;;;;;;;27.95;12.82;;;;;;;;;;5073846;28;20044;-76
2022/12/12 10:32:36;;;;;;;43.80;20.98;;;;;;;;;;5079825;28;20402;-76
2022/12/12 10:35:37;;;;;;;30.17;15.95;;;;;;;;;;5080635;28;20398;-76
2022/12/12 10:38:26;;;;;;;23.85;13.02;;;;;;;;;;5073626;28;20056;-76
2022/12/12 10:41:29;;;;;;;19.02;10.02;;;;;;;;;;5073899;28;20053;-77
2022/12/12 10:44:35;;;;;;;16.75;9.40;;;;;;;;;;5058511;28;20409;-76
2022/12/12 10:47:21;;;;;;;25.65;14.80;;;;;;;;;;5073603;28;20040;-76
2022/12/12 10:50:09;;;;;;;27.02;14.80;;;;;;;;;;5073596;28;20036;-76
2022/12/12 10:52:54;;;;;;;33.10;13.88;;;;;;;;;;5072431;28;20497;-77
2022/12/12 10:55:58;;;;;;;26.70;15.38;;;;;;;;;;5073408;28;20041;-77
2022/12/12 10:58:50;;;;;;;23.65;13.90;;;;;;;;;;5073655;28;20044;-77
2022/12/12 11:01:37;;;;;;;26.85;14.80;;;;;;;;;;5073291;28;20048;-77
2022/12/12 11:04:24;;;;;;;31.10;16.83;;;;;;;;;;5073017;28;20040;-77
2022/12/12 11:07:18;;;;;;;28.33;16.63;;;;;;;;;;5079230;28;20040;-77
2022/12/12 11:10:32;;;;;;;15.48;9.70;;;;;;;;;;5079792;28;20474;-77
2022/12/12 11:13:17;;;;;;;27.27;14.80;;;;;;;;;;5072849;28;20048;-77
2022/12/12 11:16:11;;;;;;;29.40;16.52;;;;;;;;;;5073399;28;20418;-77
2022/12/12 11:19:21;;;;;;;16.90;10.27;;;;;;;;;;5073714;28;20041;-77
2022/12/12 11:22:09;;;;;;;24.92;13.30;;;;;;;;;;5072876;28;20040;-76
2022/12/12 11:24:55;;;;;;;23.05;13.73;;;;;;;;;;5073363;28;20413;-76
2022/12/12 11:27:40;;;;;;;24.38;14.48;;;;;;;;;;5072726;28;20040;-78
2022/12/12 11:30:40;;;;;;;34.40;18.48;;;;;;;;;;5077176;28;20052;-78
2022/12/12 11:33:34;;;;;;;34.65;16.77;;;;;;;;;;5077430;28;20048;-76
2022/12/12 11:36:31;;;;;;;20.50;10.73;;;;;;;;;;5083609;28;20506;-76
2022/12/12 11:39:36;;;;;;;28.35;15.95;;;;;;;;;;5077528;28;20397;-76
2022/12/12 11:42:30;;;;;;;32.38;18.23;;;;;;;;;;5077132;28;20048;-76
2022/12/12 11:45:16;;;;;;;;;;;;;;;;;;5078549;28;20041;-76
2022/12/12 11:48:20;;;;;;;;;;;;;;;;;;5077926;28;19914;-75
2022/12/12 11:51:06;;;;;;;33.15;18.20;;;;;;;;;;5076698;28;19917;-76
2022/12/12 11:53:52;;;;;;;39.42;21.25;;;;;;;;;;5081151;28;20473;-77
2022/12/12 11:57:01;;;;;;;43.67;22.23;;;;;;;;;;5083322;28;20400;-77
2022/12/12 12:00:05;;;;;;;38.75;20.38;;;;;;;;;;5076638;28;20048;-76
2022/12/12 12:03:10;;;;;;;32.95;18.13;;;;;;;;;;5076449;28;20049;-77
2022/12/12 12:06:26;;;;;;;44.67;21.88;;;;;;;;;;5088350;28;20501;-77
2022/12/12 12:09:35;;;;;;;44.70;22.50;;;;;;;;;;5087091;28;20040;-77
2022/12/12 12:12:28;;;;;;;47.78;22.40;;;;;;;;;;5075931;28;20049;-77
2022/12/12 12:15:25;;;;;;;42.03;20.48;;;;;;;;;;5076351;28;20496;-77
2022/12/12 12:18:43;;;;;;;34.17;19.45;;;;;;;;;;5075612;28;20040;-76
2022/12/12 12:21:52;;;;;;;44.03;21.55;;;;;;;;;;5082875;28;20044;-77
2022/12/12 12:24:44;;;;;;;47.58;24.45;;;;;;;;;;5075957;28;20045;-77
2022/12/12 12:27:41;;;;;;;42.38;21.92;;;;;;;;;;5076821;28;20041;-77
2022/12/12 12:30:47;;;;;;;42.20;23.05;;;;;;;;;;5077048;28;20045;-77
2022/12/12 12:34:03;;;;;;;38.47;20.45;;;;;;;;;;5075238;28;20048;-78
2022/12/12 12:36:49;;;;;;;20.48;11.65;;;;;;;;;;5076177;28;20056;-77
2022/12/12 12:39:45;;;;;;;28.35;16.35;;;;;;;;;;5075728;28;20493;-77
2022/12/12 12:42:49;;;;;;;28.85;16.38;;;;;;;;;;5083383;28;20040;-77
2022/12/12 12:45:56;;;;;;;32.30;18.63;;;;;;;;;;5077035;28;20048;-77
2022/12/12 12:48:45;;;;;;;33.03;18.77;;;;;;;;;;5076495;28;20036;-77
2022/12/12 12:51:54;;;;;;;31.17;18.95;;;;;;;;;;5076998;28;20501;-77
2022/12/12 12:54:42;;;;;;;31.20;18.50;;;;;;;;;;5062011;28;20048;-77
2022/12/12 12:57:36;;;;;;;39.47;20.95;;;;;;;;;;5084362;28;20044;-77
2022/12/12 13:00:25;;;;;;;40.72;23.13;;;;;;;;;;5076506;28;20044;-77
2022/12/12 13:03:23;;;;;;;35.10;19.95;;;;;;;;;;5076147;28;20397;-77
2022/12/12 13:06:19;;;;;;;27.98;16.63;;;;;;;;;;5077035;28;20401;-78
2022/12/12 13:09:04;;;;;;;29.58;18.48;;;;;;;;;;5075283;28;20040;-77
2022/12/12 13:11:56;;;;;;;34.67;19.63;;;;;;;;;;5075881;28;20044;-77
2022/12/12 13:14:54;;;;;;;35.55;18.42;;;;;;;;;;5068621;28;20049;-78
2022/12/12 13:17:47;;;;;;;27.35;18.23;;;;;;;;;;5076396;28;20044;-77
2022/12/12 13:20:37;;;;;;;30.75;18.33;;;;;;;;;;5077526;28;20053;-77
2022/12/12 13:23:50;;;;;;;35.83;20.45;;;;;;;;;;5075608;28;20049;-77
2022/12/12 13:27:00;;;;;;;38.28;20.98;;;;;;;;;;5083394;28;20056;-78
2022/12/12 13:29:59;;;;;;;35.10;17.58;;;;;;;;;;5074519;28;20048;-77
2022/12/12 13:32:47;;;;;;;42.72;23.85;;;;;;;;;;5075712;28;20056;-77
2022/12/12 13:35:36;;;;;;;52.67;28.90;;;;;;;;;;5075045;28;20078;-78
2022/12/12 13:38:31;;;;;;;33.63;17.75;;;;;;;;;;5074684;28;20418;-75
2022/12/12 13:41:16;;;;;;;;;;;;;;;;;;5075839;28;20048;-79
2022/12/12 13:44:02;;;;;;;39.60;20.80;;;;;;;;;;5074433;28;19916;-80
2022/12/12 13:46:47;;;;;;;38.42;20.63;;;;;;;;;;5075100;28;20480;-76
2022/12/12 13:49:53;;;;;;;38.20;20.33;;;;;;;;;;5075129;28;20045;-76
2022/12/12 13:52:41;;;;;;;36.10;19.15;;;;;;;;;;5074175;28;20040;-76
2022/12/12 13:55:26;;;;;;;45.35;23.67;;;;;;;;;;5075704;28;20044;-76
2022/12/12 13:58:31;;;;;;;42.13;23.48;;;;;;;;;;5074165;28;20390;-76
2022/12/12 14:01:46;;;;;;;61.70;28.00;;;;;;;;;;5081660;28;20045;-79
2022/12/12 14:04:34;;;;;;;89.85;40.17;;;;;;;;;;5056377;28;20040;-80
2022/12/12 14:07:24;;;;;;;87.18;39.63;;;;;;;;;;5081555;28;20052;-77
2022/12/12 14:10:23;;;;;;;111.93;48.28;;;;;;;;;;5074620;28;20386;-78
2022/12/12 14:13:26;;;;;;;62.70;29.05;;;;;;;;;;5073818;28;20421;-83
2022/12/12 14:16:15;;;;;;;82.97;39.65;;;;;;;;;;5075813;28;20037;-79
2022/12/12 14:19:04;;;;;;;63.15;32.60;;;;;;;;;;5080652;28;20040;-80
2022/12/12 14:21:49;;;;;;;54.88;26.92;;;;;;;;;;5080936;28;20045;-79
2022/12/12 14:24:35;;;;;;;49.65;23.40;;;;;;;;;;5086910;28;20045;-79
2022/12/12 14:27:49;;;;;;;55.58;26.23;;;;;;;;;;5073669;28;20049;-81
2022/12/12 14:31:09;;;;;;;38.78;21.60;;;;;;;;;;5074047;28;20040;-81
2022/12/12 14:34:21;;;;;;;48.70;25.13;;;;;;;;;;5058327;28;20041;-81
2022/12/12 14:37:07;;;;;;;43.90;22.40;;;;;;;;;;5077273;28;20040;-82
2022/12/12 14:40:01;;;;;;;55.17;26.92;;;;;;;;;;5077188;28;20049;-81
2022/12/12 14:42:49;;;;;;;;;;;;;;;;;;5076092;28;20048;-81
2022/12/12 14:45:50;;;;;;;53.22;25.98;;;;;;;;;;5059851;28;19912;-82
2022/12/12 14:48:35;;;;;;;61.78;32.50;;;;;;;;;;5073384;28;20486;-81
2022/12/12 14:51:26;;;;;;;51.40;27.17;;;;;;;;;;5083459;28;20056;-81
2022/12/12 14:54:16;;;;;;;48.33;26.35;;;;;;;;;;5073015;28;20044;-78
2022/12/12 14:57:02;;;;;;;54.45;28.17;;;;;;;;;;5073765;28;20144;-79
2022/12/12 14:59:49;;;;;;;53.10;27.98;;;;;;;;;;5073725;28;20037;-79
2022/12/12 15:02:38;;;;;;;42.20;22.38;;;;;;;;;;5072259;28;20044;-77
2022/12/12 15:05:24;;;;;;;48.05;26.80;;;;;;;;;;5080341;28;20056;-77
2022/12/12 15:08:18;;;;;;;43.92;24.88;;;;;;;;;;5073082;28;20041;-79
2022/12/12 15:11:04;;;;;;;37.28;22.20;;;;;;;;;;5073340;28;20477;-77
2022/12/12 15:13:53;;;;;;;35.72;20.67;;;;;;;;;;5073163;28;20040;-77
2022/12/12 15:16:45;;;;;;;43.35;23.60;;;;;;;;;;5072674;28;20036;-78
2022/12/12 15:19:29;;;;;;;72.32;33.20;;;;;;;;;;5073244;28;20494;-77
2022/12/12 15:22:22;;;;;;;68.82;32.75;;;;;;;;;;5072705;28;20036;-77
2022/12/12 15:25:29;;;;;;;43.05;19.85;;;;;;;;;;5073307;28;20049;-80
2022/12/12 15:28:18;;;;;;;37.33;21.40;;;;;;;;;;5073743;28;20045;-77
2022/12/12 15:31:04;;;;;;;48.90;25.77;;;;;;;;;;5072684;28;20053;-79
2022/12/12 15:33:49;;;;;;;34.53;17.52;;;;;;;;;;5072668;28;20044;-77
2022/12/12 15:36:35;;;;;;;35.53;18.45;;;;;;;;;;5072785;28;20052;-80
2022/12/12 15:39:20;;;;;;;19.40;10.35;;;;;;;;;;5072855;28;20036;-78
2022/12/12 15:42:11;;;;;;;32.03;18.63;;;;;;;;;;5072916;28;20049;-77
2022/12/12 15:44:58;;;;;;;38.90;21.45;;;;;;;;;;5079318;28;20044;-77
2022/12/12 15:47:44;;;;;;;38.97;20.60;;;;;;;;;;5073388;28;20044;-80
2022/12/12 15:50:55;;;;;;;33.60;18.63;;;;;;;;;;5072913;28;20052;-77
2022/12/12 15:53:47;;;;;;;34.13;19.67;;;;;;;;;;5072608;28;20493;-80
2022/12/12 15:56:33;;;;;;;39.20;19.23;;;;;;;;;;5072984;28;20040;-77
2022/12/12 15:59:26;;;;;;;40.28;20.83;;;;;;;;;;5072371;28;20040;-78
2022/12/12 16:02:32;;;;;;;34.83;19.90;;;;;;;;;;5079882;28;20041;-75
2022/12/12 16:05:17;;;;;;;42.85;22.20;;;;;;;;;;5072382;28;20033;-75
2022/12/12 16:08:25;;;;;;;40.75;21.30;;;;;;;;;;5073003;28;20049;-75
2022/12/12 16:11:34;;;;;;;50.05;25.48;;;;;;;;;;5072722;28;20045;-75
2022/12/12 16:14:23;;;;;;;63.38;35.38;;;;;;;;;;5080328;28;20040;-76
2022/12/12 16:17:19;;;;;;;204.77;87.90;;;;;;;;;;5076687;28;20056;-76
2022/12/12 16:20:09;;;;;;;184.13;87.43;;;;;;;;;;5075940;28;20056;-77
2022/12/12 16:23:08;;;;;;;223.65;130.30;;;;;;;;;;5077230;28;20055;-76
2022/12/12 16:25:56;;;;;;;159.60;88.93;;;;;;;;;;5083355;28;20052;-76
2022/12/12 16:28:41;;;;;;;68.10;37.33;;;;;;;;;;5076123;28;20045;-75
2022/12/12 16:31:26;;;;;;;72.10;34.28;;;;;;;;;;5068141;28;20041;-75
2022/12/12 16:34:11;;;;;;;57.28;29.23;;;;;;;;;;5082482;28;20056;-77
2022/12/12 16:36:57;;;;;;;52.60;28.83;;;;;;;;;;5083116;28;20041;-76
2022/12/12 16:39:43;;;;;;;42.03;23.38;;;;;;;;;;5093737;28;20040;-77
2022/12/12 16:42:28;;;;;;;75.53;36.13;;;;;;;;;;5081765;28;20393;-79
2022/12/12 16:45:13;;;;;;;64.00;30.88;;;;;;;;;;5076217;28;20045;-78
2022/12/12 16:47:59;;;;;;;39.97;22.45;;;;;;;;;;5082143;28;20040;-78
2022/12/12 16:50:48;;;;;;;59.67;31.38;;;;;;;;;;5082824;28;20429;-76
2022/12/12 16:53:35;;;;;;;58.47;30.02;;;;;;;;;;5079587;28;20041;-76